sensor_id;sensor_type;location;lat;lon;timestamp;P1;durP1;ratioP1;P2;durP2;ratioP2
50739;SDS011;36704;52.524;17.580;2023-06-22T00:02:04;29.60;;;22.15;;
50739;SDS011;36704;52.524;17.580;2023-06-22T00:04:50;23.83;;;20.30;;
50739;SDS011;36704;52.524;17.580;2023-06-22T00:07:37;28.15;;;21.08;;
50739;SDS011;36704;52.524;17.580;2023-06-22T00:10:23;24.75;;;20.05;;
50739;SDS011;36704;52.524;17.580;2023-06-22T00:13:10;28.52;;;21.02;;
50739;SDS011;36704;52.524;17.580;2023-06-22T00:15:56;24.25;;;19.98;;
50739;SDS011;36704;52.524;17.580;2023-06-22T00:18:42;24.70;;;20.60;;
50739;SDS011;36704;52.524;17.580;2023-06-22T00:21:32;23.10;;;20.60;;
50739;SDS011;36704;52.524;17.580;2023-06-22T00:24:19;23.83;;;20.48;;
50739;SDS011;36704;52.524;17.580;2023-06-22T00:27:05;25.80;;;21.42;;
50739;SDS011;36704;52.524;17.580;2023-06-22T00:29:51;28.98;;;22.65;;
50739;SDS011;36704;52.524;17.580;2023-06-22T00:32:39;26.23;;;20.80;;
50739;SDS011;36704;52.524;17.580;2023-06-22T00:35:26;26.90;;;20.17;;
50739;SDS011;36704;52.524;17.580;2023-06-22T00:38:14;22.77;;;19.80;;
50739;SDS011;36704;52.524;17.580;2023-06-22T00:41:01;24.60;;;19.58;;
50739;SDS011;36704;52.524;17.580;2023-06-22T00:43:47;23.95;;;20.40;;
50739;SDS011;36704;52.524;17.580;2023-06-22T00:46:33;26.10;;;21.08;;
50739;SDS011;36704;52.524;17.580;2023-06-22T00:49:19;28.98;;;20.77;;
50739;SDS011;36704;52.524;17.580;2023-06-22T00:52:06;24.02;;;20.83;;
50739;SDS011;36704;52.524;17.580;2023-06-22T00:54:59;22.75;;;19.80;;
50739;SDS011;36704;52.524;17.580;2023-06-22T00:57:48;26.10;;;20.08;;
50739;SDS011;36704;52.524;17.580;2023-06-22T01:00:34;25.23;;;19.58;;
50739;SDS011;36704;52.524;17.580;2023-06-22T01:03:21;24.65;;;21.02;;
50739;SDS011;36704;52.524;17.580;2023-06-22T01:06:14;21.75;;;19.10;;
50739;SDS011;36704;52.524;17.580;2023-06-22T01:09:07;22.50;;;19.63;;
50739;SDS011;36704;52.524;17.580;2023-06-22T01:12:01;22.30;;;18.70;;
50739;SDS011;36704;52.524;17.580;2023-06-22T01:14:53;25.05;;;19.80;;
50739;SDS011;36704;52.524;17.580;2023-06-22T01:17:42;25.60;;;19.95;;
50739;SDS011;36704;52.524;17.580;2023-06-22T01:20:29;27.02;;;19.42;;
50739;SDS011;36704;52.524;17.580;2023-06-22T01:23:20;22.58;;;19.73;;
50739;SDS011;36704;52.524;17.580;2023-06-22T01:26:17;27.73;;;21.27;;
50739;SDS011;36704;52.524;17.580;2023-06-22T01:29:05;23.55;;;20.02;;
50739;SDS011;36704;52.524;17.580;2023-06-22T01:31:53;20.63;;;18.40;;
50739;SDS011;36704;52.524;17.580;2023-06-22T01:34:40;22.77;;;18.05;;
50739;SDS011;36704;52.524;17.580;2023-06-22T01:37:27;22.90;;;19.38;;
50739;SDS011;36704;52.524;17.580;2023-06-22T01:40:14;22.15;;;18.25;;
50739;SDS011;36704;52.524;17.580;2023-06-22T01:43:02;25.42;;;19.83;;
50739;SDS011;36704;52.524;17.580;2023-06-22T01:45:49;25.10;;;20.13;;
50739;SDS011;36704;52.524;17.580;2023-06-22T01:48:37;20.95;;;17.75;;
50739;SDS011;36704;52.524;17.580;2023-06-22T01:51:24;20.63;;;18.08;;
50739;SDS011;36704;52.524;17.580;2023-06-22T01:54:10;21.00;;;18.60;;
50739;SDS011;36704;52.524;17.580;2023-06-22T01:56:57;22.58;;;19.35;;
50739;SDS011;36704;52.524;17.580;2023-06-22T01:59:47;23.98;;;19.08;;
50739;SDS011;36704;52.524;17.580;2023-06-22T02:02:39;19.95;;;17.05;;
50739;SDS011;36704;52.524;17.580;2023-06-22T02:05:52;19.85;;;17.05;;
50739;SDS011;36704;52.524;17.580;2023-06-22T02:08:49;19.88;;;16.77;;
50739;SDS011;36704;52.524;17.580;2023-06-22T02:11:39;21.92;;;18.58;;
50739;SDS011;36704;52.524;17.580;2023-06-22T02:14:27;20.95;;;18.02;;
50739;SDS011;36704;52.524;17.580;2023-06-22T02:17:13;19.38;;;17.15;;
50739;SDS011;36704;52.524;17.580;2023-06-22T02:20:00;23.42;;;19.27;;
50739;SDS011;36704;52.524;17.580;2023-06-22T02:22:49;20.40;;;17.15;;
50739;SDS011;36704;52.524;17.580;2023-06-22T02:25:35;20.92;;;18.02;;
50739;SDS011;36704;52.524;17.580;2023-06-22T02:28:23;19.00;;;17.00;;
50739;SDS011;36704;52.524;17.580;2023-06-22T02:31:09;20.17;;;16.67;;
50739;SDS011;36704;52.524;17.580;2023-06-22T02:33:58;21.88;;;18.45;;
50739;SDS011;36704;52.524;17.580;2023-06-22T02:36:45;17.30;;;15.40;;
50739;SDS011;36704;52.524;17.580;2023-06-22T02:39:37;19.60;;;15.95;;
50739;SDS011;36704;52.524;17.580;2023-06-22T02:42:23;20.65;;;17.60;;
50739;SDS011;36704;52.524;17.580;2023-06-22T02:45:09;19.20;;;16.42;;
50739;SDS011;36704;52.524;17.580;2023-06-22T02:47:55;18.10;;;16.15;;
50739;SDS011;36704;52.524;17.580;2023-06-22T02:50:42;17.35;;;15.45;;
50739;SDS011;36704;52.524;17.580;2023-06-22T02:53:29;16.20;;;14.50;;
50739;SDS011;36704;52.524;17.580;2023-06-22T02:56:15;16.38;;;14.60;;
50739;SDS011;36704;52.524;17.580;2023-06-22T02:59:03;17.77;;;15.93;;
50739;SDS011;36704;52.524;17.580;2023-06-22T03:01:56;19.58;;;16.50;;
50739;SDS011;36704;52.524;17.580;2023-06-22T03:04:47;17.25;;;14.00;;
50739;SDS011;36704;52.524;17.580;2023-06-22T03:07:35;17.95;;;15.98;;
50739;SDS011;36704;52.524;17.580;2023-06-22T03:10:22;17.85;;;15.57;;
50739;SDS011;36704;52.524;17.580;2023-06-22T03:13:09;18.00;;;15.95;;
50739;SDS011;36704;52.524;17.580;2023-06-22T03:15:55;18.63;;;15.73;;
50739;SDS011;36704;52.524;17.580;2023-06-22T03:18:41;18.75;;;15.05;;
50739;SDS011;36704;52.524;17.580;2023-06-22T03:21:28;19.50;;;15.38;;
50739;SDS011;36704;52.524;17.580;2023-06-22T03:24:15;21.80;;;16.75;;
50739;SDS011;36704;52.524;17.580;2023-06-22T03:27:01;18.52;;;15.02;;
50739;SDS011;36704;52.524;17.580;2023-06-22T03:29:52;19.00;;;15.27;;
50739;SDS011;36704;52.524;17.580;2023-06-22T03:32:39;20.48;;;13.95;;
50739;SDS011;36704;52.524;17.580;2023-06-22T03:35:26;16.45;;;13.98;;
50739;SDS011;36704;52.524;17.580;2023-06-22T03:38:13;16.83;;;13.70;;
50739;SDS011;36704;52.524;17.580;2023-06-22T03:41:00;20.13;;;15.23;;
50739;SDS011;36704;52.524;17.580;2023-06-22T03:43:48;20.23;;;14.55;;
50739;SDS011;36704;52.524;17.580;2023-06-22T03:46:34;16.98;;;13.68;;
50739;SDS011;36704;52.524;17.580;2023-06-22T03:49:20;20.85;;;13.35;;
50739;SDS011;36704;52.524;17.580;2023-06-22T03:52:07;17.20;;;11.88;;
50739;SDS011;36704;52.524;17.580;2023-06-22T03:54:53;16.08;;;12.15;;
50739;SDS011;36704;52.524;17.580;2023-06-22T03:57:39;15.70;;;12.07;;
50739;SDS011;36704;52.524;17.580;2023-06-22T04:00:26;17.35;;;11.25;;
50739;SDS011;36704;52.524;17.580;2023-06-22T04:03:15;23.25;;;13.45;;
50739;SDS011;36704;52.524;17.580;2023-06-22T04:06:01;11.55;;;9.93;;
50739;SDS011;36704;52.524;17.580;2023-06-22T04:08:48;15.77;;;10.63;;
50739;SDS011;36704;52.524;17.580;2023-06-22T04:11:36;15.52;;;9.38;;
50739;SDS011;36704;52.524;17.580;2023-06-22T04:14:23;11.68;;;9.95;;
50739;SDS011;36704;52.524;17.580;2023-06-22T04:17:09;17.25;;;10.70;;
50739;SDS011;36704;52.524;17.580;2023-06-22T04:19:55;12.80;;;9.85;;
50739;SDS011;36704;52.524;17.580;2023-06-22T04:22:41;10.30;;;8.38;;
50739;SDS011;36704;52.524;17.580;2023-06-22T04:25:28;20.80;;;10.30;;
50739;SDS011;36704;52.524;17.580;2023-06-22T04:28:14;11.77;;;8.13;;
50739;SDS011;36704;52.524;17.580;2023-06-22T04:31:01;12.45;;;9.40;;
50739;SDS011;36704;52.524;17.580;2023-06-22T04:33:48;12.15;;;9.77;;
50739;SDS011;36704;52.524;17.580;2023-06-22T04:36:40;15.15;;;9.93;;
50739;SDS011;36704;52.524;17.580;2023-06-22T04:39:26;14.25;;;8.70;;
50739;SDS011;36704;52.524;17.580;2023-06-22T04:42:13;7.93;;;7.07;;
50739;SDS011;36704;52.524;17.580;2023-06-22T04:44:58;14.32;;;8.93;;
50739;SDS011;36704;52.524;17.580;2023-06-22T04:47:47;8.90;;;7.53;;
50739;SDS011;36704;52.524;17.580;2023-06-22T04:50:33;9.95;;;7.43;;
50739;SDS011;36704;52.524;17.580;2023-06-22T04:53:19;14.05;;;7.75;;
50739;SDS011;36704;52.524;17.580;2023-06-22T04:56:05;9.93;;;7.20;;
50739;SDS011;36704;52.524;17.580;2023-06-22T04:58:52;15.20;;;8.45;;
50739;SDS011;36704;52.524;17.580;2023-06-22T05:01:41;12.18;;;8.30;;
50739;SDS011;36704;52.524;17.580;2023-06-22T05:04:28;10.63;;;6.80;;
50739;SDS011;36704;52.524;17.580;2023-06-22T05:07:21;10.32;;;7.50;;
50739;SDS011;36704;52.524;17.580;2023-06-22T05:10:11;8.57;;;5.97;;
50739;SDS011;36704;52.524;17.580;2023-06-22T05:12:58;9.55;;;6.30;;
50739;SDS011;36704;52.524;17.580;2023-06-22T05:15:44;9.52;;;5.97;;
50739;SDS011;36704;52.524;17.580;2023-06-22T05:18:33;12.88;;;5.80;;
50739;SDS011;36704;52.524;17.580;2023-06-22T05:21:21;8.45;;;5.57;;
50739;SDS011;36704;52.524;17.580;2023-06-22T05:24:08;6.22;;;5.13;;
50739;SDS011;36704;52.524;17.580;2023-06-22T05:26:55;11.20;;;5.47;;
50739;SDS011;36704;52.524;17.580;2023-06-22T05:29:41;7.75;;;4.97;;
50739;SDS011;36704;52.524;17.580;2023-06-22T05:32:30;8.83;;;5.27;;
50739;SDS011;36704;52.524;17.580;2023-06-22T05:35:16;9.85;;;5.40;;
50739;SDS011;36704;52.524;17.580;2023-06-22T05:38:03;6.90;;;5.97;;
50739;SDS011;36704;52.524;17.580;2023-06-22T05:40:49;6.72;;;5.18;;
50739;SDS011;36704;52.524;17.580;2023-06-22T05:43:35;14.73;;;6.20;;
50739;SDS011;36704;52.524;17.580;2023-06-22T05:46:22;9.18;;;5.72;;
50739;SDS011;36704;52.524;17.580;2023-06-22T05:49:09;9.85;;;6.18;;
50739;SDS011;36704;52.524;17.580;2023-06-22T05:51:56;12.93;;;6.35;;
50739;SDS011;36704;52.524;17.580;2023-06-22T05:54:44;8.07;;;5.17;;
50739;SDS011;36704;52.524;17.580;2023-06-22T05:57:30;7.60;;;5.60;;
50739;SDS011;36704;52.524;17.580;2023-06-22T06:00:17;8.13;;;4.93;;
50739;SDS011;36704;52.524;17.580;2023-06-22T06:03:03;7.65;;;6.07;;
50739;SDS011;36704;52.524;17.580;2023-06-22T06:05:49;8.23;;;5.13;;
50739;SDS011;36704;52.524;17.580;2023-06-22T06:08:35;8.68;;;5.95;;
50739;SDS011;36704;52.524;17.580;2023-06-22T06:11:22;8.95;;;5.43;;
50739;SDS011;36704;52.524;17.580;2023-06-22T06:14:08;6.82;;;5.05;;
50739;SDS011;36704;52.524;17.580;2023-06-22T06:16:54;6.97;;;5.80;;
50739;SDS011;36704;52.524;17.580;2023-06-22T06:19:40;12.90;;;6.60;;
50739;SDS011;36704;52.524;17.580;2023-06-22T06:22:27;7.55;;;5.10;;
50739;SDS011;36704;52.524;17.580;2023-06-22T06:25:13;10.48;;;5.10;;
50739;SDS011;36704;52.524;17.580;2023-06-22T06:28:02;8.63;;;5.80;;
50739;SDS011;36704;52.524;17.580;2023-06-22T06:30:48;9.18;;;5.50;;
50739;SDS011;36704;52.524;17.580;2023-06-22T06:33:35;7.03;;;5.10;;
50739;SDS011;36704;52.524;17.580;2023-06-22T06:36:22;8.57;;;5.60;;
50739;SDS011;36704;52.524;17.580;2023-06-22T06:39:08;8.95;;;5.18;;
50739;SDS011;36704;52.524;17.580;2023-06-22T06:41:55;9.20;;;5.00;;
50739;SDS011;36704;52.524;17.580;2023-06-22T06:44:41;7.38;;;4.70;;
50739;SDS011;36704;52.524;17.580;2023-06-22T06:47:28;6.90;;;4.43;;
50739;SDS011;36704;52.524;17.580;2023-06-22T06:50:14;7.28;;;4.72;;
50739;SDS011;36704;52.524;17.580;2023-06-22T06:53:00;6.53;;;4.30;;
50739;SDS011;36704;52.524;17.580;2023-06-22T06:55:47;7.32;;;5.10;;
50739;SDS011;36704;52.524;17.580;2023-06-22T06:58:33;7.70;;;4.50;;
50739;SDS011;36704;52.524;17.580;2023-06-22T07:01:20;7.65;;;5.18;;
50739;SDS011;36704;52.524;17.580;2023-06-22T07:04:07;8.70;;;4.78;;
50739;SDS011;36704;52.524;17.580;2023-06-22T07:06:53;9.48;;;5.07;;
50739;SDS011;36704;52.524;17.580;2023-06-22T07:09:39;7.28;;;4.90;;
50739;SDS011;36704;52.524;17.580;2023-06-22T07:12:26;7.55;;;4.90;;
50739;SDS011;36704;52.524;17.580;2023-06-22T07:15:13;7.20;;;4.97;;
50739;SDS011;36704;52.524;17.580;2023-06-22T07:17:59;9.15;;;4.75;;
50739;SDS011;36704;52.524;17.580;2023-06-22T07:20:45;8.30;;;4.72;;
50739;SDS011;36704;52.524;17.580;2023-06-22T07:23:32;9.93;;;4.95;;
50739;SDS011;36704;52.524;17.580;2023-06-22T07:26:18;6.45;;;4.00;;
50739;SDS011;36704;52.524;17.580;2023-06-22T07:29:05;6.63;;;3.97;;
50739;SDS011;36704;52.524;17.580;2023-06-22T07:31:51;7.47;;;4.72;;
50739;SDS011;36704;52.524;17.580;2023-06-22T07:34:37;7.47;;;4.32;;
50739;SDS011;36704;52.524;17.580;2023-06-22T07:37:23;5.93;;;4.28;;
50739;SDS011;36704;52.524;17.580;2023-06-22T07:40:10;6.57;;;4.53;;
50739;SDS011;36704;52.524;17.580;2023-06-22T07:42:56;6.80;;;4.80;;
50739;SDS011;36704;52.524;17.580;2023-06-22T07:45:47;8.52;;;5.35;;
50739;SDS011;36704;52.524;17.580;2023-06-22T07:48:37;9.57;;;5.07;;
50739;SDS011;36704;52.524;17.580;2023-06-22T07:51:25;4.57;;;3.80;;
50739;SDS011;36704;52.524;17.580;2023-06-22T07:54:11;5.65;;;4.05;;
50739;SDS011;36704;52.524;17.580;2023-06-22T07:56:57;7.93;;;3.95;;
50739;SDS011;36704;52.524;17.580;2023-06-22T07:59:43;6.43;;;4.03;;
50739;SDS011;36704;52.524;17.580;2023-06-22T08:02:30;6.38;;;4.07;;
50739;SDS011;36704;52.524;17.580;2023-06-22T08:05:16;5.75;;;3.58;;
50739;SDS011;36704;52.524;17.580;2023-06-22T08:08:07;5.60;;;3.88;;
50739;SDS011;36704;52.524;17.580;2023-06-22T08:10:53;4.40;;;3.75;;
50739;SDS011;36704;52.524;17.580;2023-06-22T08:13:39;6.53;;;4.15;;
50739;SDS011;36704;52.524;17.580;2023-06-22T08:16:25;7.95;;;4.00;;
50739;SDS011;36704;52.524;17.580;2023-06-22T08:19:12;8.27;;;4.40;;
50739;SDS011;36704;52.524;17.580;2023-06-22T08:21:58;6.05;;;4.22;;
50739;SDS011;36704;52.524;17.580;2023-06-22T08:24:45;6.78;;;3.80;;
50739;SDS011;36704;52.524;17.580;2023-06-22T08:27:31;6.07;;;3.80;;
50739;SDS011;36704;52.524;17.580;2023-06-22T08:30:17;7.32;;;4.10;;
50739;SDS011;36704;52.524;17.580;2023-06-22T08:33:06;6.68;;;3.65;;
50739;SDS011;36704;52.524;17.580;2023-06-22T08:35:53;6.18;;;3.85;;
50739;SDS011;36704;52.524;17.580;2023-06-22T08:38:39;5.32;;;3.67;;
50739;SDS011;36704;52.524;17.580;2023-06-22T08:41:26;7.35;;;4.45;;
50739;SDS011;36704;52.524;17.580;2023-06-22T08:44:13;6.82;;;4.10;;
50739;SDS011;36704;52.524;17.580;2023-06-22T08:46:59;5.97;;;3.97;;
50739;SDS011;36704;52.524;17.580;2023-06-22T08:49:45;4.25;;;3.35;;
50739;SDS011;36704;52.524;17.580;2023-06-22T08:52:33;4.72;;;3.50;;
50739;SDS011;36704;52.524;17.580;2023-06-22T08:55:19;5.18;;;3.78;;
50739;SDS011;36704;52.524;17.580;2023-06-22T08:58:05;5.18;;;3.38;;
50739;SDS011;36704;52.524;17.580;2023-06-22T09:00:52;7.47;;;2.92;;
50739;SDS011;36704;52.524;17.580;2023-06-22T09:03:38;4.88;;;2.90;;
50739;SDS011;36704;52.524;17.580;2023-06-22T09:06:24;4.70;;;3.17;;
50739;SDS011;36704;52.524;17.580;2023-06-22T09:09:11;6.65;;;3.50;;
50739;SDS011;36704;52.524;17.580;2023-06-22T09:11:58;6.07;;;4.15;;
50739;SDS011;36704;52.524;17.580;2023-06-22T09:14:44;3.72;;;3.15;;
50739;SDS011;36704;52.524;17.580;2023-06-22T09:17:30;4.43;;;3.05;;
50739;SDS011;36704;52.524;17.580;2023-06-22T09:20:17;4.45;;;3.00;;
50739;SDS011;36704;52.524;17.580;2023-06-22T09:23:03;4.47;;;3.10;;
50739;SDS011;36704;52.524;17.580;2023-06-22T09:25:50;7.25;;;3.75;;
50739;SDS011;36704;52.524;17.580;2023-06-22T09:28:36;5.20;;;3.30;;
50739;SDS011;36704;52.524;17.580;2023-06-22T09:31:22;7.60;;;3.03;;
50739;SDS011;36704;52.524;17.580;2023-06-22T09:34:11;5.47;;;3.20;;
50739;SDS011;36704;52.524;17.580;2023-06-22T09:36:58;3.67;;;2.92;;
50739;SDS011;36704;52.524;17.580;2023-06-22T09:39:46;5.93;;;3.30;;
50739;SDS011;36704;52.524;17.580;2023-06-22T09:42:32;4.45;;;3.17;;
50739;SDS011;36704;52.524;17.580;2023-06-22T09:45:19;6.05;;;3.05;;
50739;SDS011;36704;52.524;17.580;2023-06-22T09:48:06;6.07;;;3.85;;
50739;SDS011;36704;52.524;17.580;2023-06-22T09:50:52;5.35;;;3.22;;
50739;SDS011;36704;52.524;17.580;2023-06-22T09:53:39;4.20;;;2.90;;
50739;SDS011;36704;52.524;17.580;2023-06-22T09:56:25;4.53;;;3.25;;
50739;SDS011;36704;52.524;17.580;2023-06-22T09:59:14;4.97;;;2.53;;
50739;SDS011;36704;52.524;17.580;2023-06-22T10:02:04;3.95;;;2.70;;
50739;SDS011;36704;52.524;17.580;2023-06-22T10:04:50;5.32;;;3.03;;
50739;SDS011;36704;52.524;17.580;2023-06-22T10:07:36;4.35;;;2.83;;
50739;SDS011;36704;52.524;17.580;2023-06-22T10:10:28;4.13;;;3.10;;
50739;SDS011;36704;52.524;17.580;2023-06-22T10:13:14;3.35;;;2.50;;
50739;SDS011;36704;52.524;17.580;2023-06-22T10:16:00;4.57;;;2.78;;
50739;SDS011;36704;52.524;17.580;2023-06-22T10:18:46;3.40;;;2.30;;
50739;SDS011;36704;52.524;17.580;2023-06-22T10:21:33;5.13;;;2.67;;
50739;SDS011;36704;52.524;17.580;2023-06-22T10:24:20;6.30;;;3.30;;
50739;SDS011;36704;52.524;17.580;2023-06-22T10:27:07;5.10;;;2.80;;
50739;SDS011;36704;52.524;17.580;2023-06-22T10:29:53;4.60;;;3.30;;
50739;SDS011;36704;52.524;17.580;2023-06-22T10:32:40;4.72;;;3.10;;
50739;SDS011;36704;52.524;17.580;2023-06-22T10:35:28;7.60;;;3.28;;
50739;SDS011;36704;52.524;17.580;2023-06-22T10:38:14;5.78;;;3.00;;
50739;SDS011;36704;52.524;17.580;2023-06-22T10:41:00;9.93;;;2.95;;
50739;SDS011;36704;52.524;17.580;2023-06-22T10:43:47;2.90;;;2.58;;
50739;SDS011;36704;52.524;17.580;2023-06-22T10:46:33;4.05;;;2.50;;
50739;SDS011;36704;52.524;17.580;2023-06-22T10:49:19;3.50;;;2.33;;
50739;SDS011;36704;52.524;17.580;2023-06-22T10:52:06;4.40;;;2.85;;
50739;SDS011;36704;52.524;17.580;2023-06-22T10:54:53;5.32;;;2.92;;
50739;SDS011;36704;52.524;17.580;2023-06-22T10:57:39;5.50;;;2.20;;
50739;SDS011;36704;52.524;17.580;2023-06-22T11:00:29;4.10;;;2.67;;
50739;SDS011;36704;52.524;17.580;2023-06-22T11:03:16;4.80;;;2.63;;
50739;SDS011;36704;52.524;17.580;2023-06-22T11:06:02;3.20;;;2.85;;
50739;SDS011;36704;52.524;17.580;2023-06-22T11:08:48;8.07;;;2.90;;
50739;SDS011;36704;52.524;17.580;2023-06-22T11:11:51;3.28;;;2.67;;
50739;SDS011;36704;52.524;17.580;2023-06-22T11:14:40;4.07;;;2.35;;
50739;SDS011;36704;52.524;17.580;2023-06-22T11:17:27;4.47;;;2.85;;
50739;SDS011;36704;52.524;17.580;2023-06-22T11:20:13;4.47;;;2.70;;
50739;SDS011;36704;52.524;17.580;2023-06-22T11:22:59;5.07;;;2.42;;
50739;SDS011;36704;52.524;17.580;2023-06-22T11:25:46;2.95;;;2.10;;
50739;SDS011;36704;52.524;17.580;2023-06-22T11:28:32;3.55;;;2.70;;
50739;SDS011;36704;52.524;17.580;2023-06-22T11:31:18;5.15;;;2.92;;
50739;SDS011;36704;52.524;17.580;2023-06-22T11:34:11;4.03;;;2.35;;
50739;SDS011;36704;52.524;17.580;2023-06-22T11:36:57;4.50;;;2.63;;
50739;SDS011;36704;52.524;17.580;2023-06-22T11:39:43;4.22;;;2.83;;
50739;SDS011;36704;52.524;17.580;2023-06-22T11:42:38;5.45;;;2.95;;
50739;SDS011;36704;52.524;17.580;2023-06-22T11:45:24;5.10;;;2.80;;
50739;SDS011;36704;52.524;17.580;2023-06-22T11:48:10;8.32;;;3.10;;
50739;SDS011;36704;52.524;17.580;2023-06-22T11:50:56;4.07;;;2.75;;
50739;SDS011;36704;52.524;17.580;2023-06-22T11:53:44;4.13;;;2.50;;
50739;SDS011;36704;52.524;17.580;2023-06-22T11:56:31;3.63;;;2.80;;
50739;SDS011;36704;52.524;17.580;2023-06-22T11:59:18;4.47;;;2.92;;
50739;SDS011;36704;52.524;17.580;2023-06-22T12:02:04;4.72;;;2.95;;
50739;SDS011;36704;52.524;17.580;2023-06-22T12:04:53;5.75;;;3.03;;
50739;SDS011;36704;52.524;17.580;2023-06-22T12:07:41;7.72;;;2.90;;
50739;SDS011;36704;52.524;17.580;2023-06-22T12:10:27;4.65;;;2.90;;
50739;SDS011;36704;52.524;17.580;2023-06-22T12:13:15;3.90;;;2.88;;
50739;SDS011;36704;52.524;17.580;2023-06-22T12:16:01;4.13;;;2.70;;
50739;SDS011;36704;52.524;17.580;2023-06-22T12:18:48;5.03;;;2.80;;
50739;SDS011;36704;52.524;17.580;2023-06-22T12:21:34;4.80;;;2.88;;
50739;SDS011;36704;52.524;17.580;2023-06-22T12:24:20;3.78;;;2.60;;
50739;SDS011;36704;52.524;17.580;2023-06-22T12:27:07;5.93;;;3.30;;
50739;SDS011;36704;52.524;17.580;2023-06-22T12:29:54;6.15;;;2.60;;
50739;SDS011;36704;52.524;17.580;2023-06-22T12:32:40;4.95;;;2.67;;
50739;SDS011;36704;52.524;17.580;2023-06-22T12:35:26;4.43;;;2.88;;
50739;SDS011;36704;52.524;17.580;2023-06-22T12:38:13;4.72;;;2.58;;
50739;SDS011;36704;52.524;17.580;2023-06-22T12:40:59;4.28;;;2.60;;
50739;SDS011;36704;52.524;17.580;2023-06-22T12:43:46;4.97;;;2.92;;
50739;SDS011;36704;52.524;17.580;2023-06-22T12:46:32;3.90;;;2.88;;
50739;SDS011;36704;52.524;17.580;2023-06-22T12:49:23;3.90;;;2.60;;
50739;SDS011;36704;52.524;17.580;2023-06-22T12:52:09;5.05;;;2.47;;
50739;SDS011;36704;52.524;17.580;2023-06-22T12:54:56;3.78;;;2.67;;
50739;SDS011;36704;52.524;17.580;2023-06-22T12:57:43;2.97;;;2.63;;
50739;SDS011;36704;52.524;17.580;2023-06-22T13:00:29;4.03;;;2.95;;
50739;SDS011;36704;52.524;17.580;2023-06-22T13:03:16;5.60;;;3.05;;
50739;SDS011;36704;52.524;17.580;2023-06-22T13:06:02;18.63;;;3.17;;
50739;SDS011;36704;52.524;17.580;2023-06-22T13:08:49;10.68;;;2.92;;
50739;SDS011;36704;52.524;17.580;2023-06-22T13:11:38;4.18;;;2.80;;
50739;SDS011;36704;52.524;17.580;2023-06-22T13:14:25;5.07;;;2.80;;
50739;SDS011;36704;52.524;17.580;2023-06-22T13:17:11;5.20;;;3.00;;
50739;SDS011;36704;52.524;17.580;2023-06-22T13:19:58;6.38;;;3.30;;
50739;SDS011;36704;52.524;17.580;2023-06-22T13:22:44;3.53;;;2.75;;
50739;SDS011;36704;52.524;17.580;2023-06-22T13:25:30;4.18;;;2.95;;
50739;SDS011;36704;52.524;17.580;2023-06-22T13:28:17;4.95;;;3.08;;
50739;SDS011;36704;52.524;17.580;2023-06-22T13:31:13;6.22;;;3.03;;
50739;SDS011;36704;52.524;17.580;2023-06-22T13:33:59;4.97;;;2.72;;
50739;SDS011;36704;52.524;17.580;2023-06-22T13:36:46;6.28;;;3.22;;
50739;SDS011;36704;52.524;17.580;2023-06-22T13:39:32;3.75;;;3.28;;
50739;SDS011;36704;52.524;17.580;2023-06-22T13:42:18;3.22;;;2.90;;
50739;SDS011;36704;52.524;17.580;2023-06-22T13:45:04;6.15;;;3.38;;
50739;SDS011;36704;52.524;17.580;2023-06-22T13:47:52;4.20;;;3.00;;
50739;SDS011;36704;52.524;17.580;2023-06-22T13:50:38;4.80;;;3.38;;
50739;SDS011;36704;52.524;17.580;2023-06-22T13:53:24;4.15;;;3.20;;
50739;SDS011;36704;52.524;17.580;2023-06-22T13:56:11;3.42;;;3.05;;
50739;SDS011;36704;52.524;17.580;2023-06-22T13:58:58;4.50;;;3.25;;
50739;SDS011;36704;52.524;17.580;2023-06-22T14:01:44;4.82;;;3.25;;
50739;SDS011;36704;52.524;17.580;2023-06-22T14:04:30;5.68;;;3.50;;
50739;SDS011;36704;52.524;17.580;2023-06-22T14:07:16;5.90;;;3.10;;
50739;SDS011;36704;52.524;17.580;2023-06-22T14:10:05;6.22;;;2.72;;
50739;SDS011;36704;52.524;17.580;2023-06-22T14:12:51;6.00;;;2.67;;
50739;SDS011;36704;52.524;17.580;2023-06-22T14:15:59;5.05;;;3.25;;
50739;SDS011;36704;52.524;17.580;2023-06-22T14:18:45;6.53;;;3.15;;
50739;SDS011;36704;52.524;17.580;2023-06-22T14:21:32;5.75;;;2.75;;
50739;SDS011;36704;52.524;17.580;2023-06-22T14:24:18;4.50;;;3.28;;
50739;SDS011;36704;52.524;17.580;2023-06-22T14:27:08;5.15;;;2.67;;
50739;SDS011;36704;52.524;17.580;2023-06-22T14:29:54;3.22;;;2.58;;
50739;SDS011;36704;52.524;17.580;2023-06-22T14:32:42;3.58;;;2.95;;
50739;SDS011;36704;52.524;17.580;2023-06-22T14:35:29;4.65;;;3.05;;
50739;SDS011;36704;52.524;17.580;2023-06-22T14:38:15;5.60;;;3.60;;
50739;SDS011;36704;52.524;17.580;2023-06-22T14:41:01;5.13;;;3.15;;
50739;SDS011;36704;52.524;17.580;2023-06-22T14:43:50;5.80;;;2.97;;
50739;SDS011;36704;52.524;17.580;2023-06-22T14:46:36;6.82;;;2.90;;
50739;SDS011;36704;52.524;17.580;2023-06-22T14:49:23;3.10;;;2.80;;
50739;SDS011;36704;52.524;17.580;2023-06-22T14:52:09;5.85;;;3.20;;
50739;SDS011;36704;52.524;17.580;2023-06-22T14:54:56;5.55;;;2.97;;
50739;SDS011;36704;52.524;17.580;2023-06-22T14:57:42;6.18;;;2.90;;
50739;SDS011;36704;52.524;17.580;2023-06-22T15:00:28;3.20;;;2.90;;
50739;SDS011;36704;52.524;17.580;2023-06-22T15:03:15;4.13;;;3.22;;
50739;SDS011;36704;52.524;17.580;2023-06-22T15:06:07;4.85;;;2.90;;
50739;SDS011;36704;52.524;17.580;2023-06-22T15:08:54;3.28;;;2.55;;
50739;SDS011;36704;52.524;17.580;2023-06-22T15:11:41;3.08;;;2.55;;
50739;SDS011;36704;52.524;17.580;2023-06-22T15:14:28;4.38;;;3.58;;
50739;SDS011;36704;52.524;17.580;2023-06-22T15:17:16;5.00;;;3.78;;
50739;SDS011;36704;52.524;17.580;2023-06-22T15:20:02;4.85;;;3.05;;
50739;SDS011;36704;52.524;17.580;2023-06-22T15:22:51;5.40;;;3.10;;
50739;SDS011;36704;52.524;17.580;2023-06-22T15:25:37;3.95;;;3.10;;
50739;SDS011;36704;52.524;17.580;2023-06-22T15:28:26;5.72;;;3.22;;
50739;SDS011;36704;52.524;17.580;2023-06-22T15:31:13;5.85;;;3.67;;
50739;SDS011;36704;52.524;17.580;2023-06-22T15:34:00;6.03;;;3.30;;
50739;SDS011;36704;52.524;17.580;2023-06-22T15:36:46;5.07;;;2.80;;
50739;SDS011;36704;52.524;17.580;2023-06-22T15:39:34;9.20;;;2.90;;
50739;SDS011;36704;52.524;17.580;2023-06-22T15:42:20;4.18;;;2.88;;
50739;SDS011;36704;52.524;17.580;2023-06-22T15:45:06;3.92;;;2.95;;
50739;SDS011;36704;52.524;17.580;2023-06-22T15:47:52;4.07;;;2.88;;
50739;SDS011;36704;52.524;17.580;2023-06-22T15:50:39;3.75;;;2.97;;
50739;SDS011;36704;52.524;17.580;2023-06-22T15:53:25;6.22;;;3.42;;
50739;SDS011;36704;52.524;17.580;2023-06-22T15:56:11;8.38;;;4.07;;
50739;SDS011;36704;52.524;17.580;2023-06-22T15:58:57;4.57;;;2.88;;
50739;SDS011;36704;52.524;17.580;2023-06-22T16:01:44;6.57;;;3.03;;
50739;SDS011;36704;52.524;17.580;2023-06-22T16:04:30;5.05;;;3.20;;
50739;SDS011;36704;52.524;17.580;2023-06-22T16:07:17;4.20;;;2.72;;
50739;SDS011;36704;52.524;17.580;2023-06-22T16:10:03;4.72;;;3.10;;
50739;SDS011;36704;52.524;17.580;2023-06-22T16:12:50;9.32;;;3.00;;
50739;SDS011;36704;52.524;17.580;2023-06-22T16:15:41;4.43;;;3.10;;
50739;SDS011;36704;52.524;17.580;2023-06-22T16:18:48;4.75;;;2.97;;
50739;SDS011;36704;52.524;17.580;2023-06-22T16:22:23;5.40;;;2.90;;
50739;SDS011;36704;52.524;17.580;2023-06-22T16:27:13;4.60;;;3.50;;